sensor_id;sensor_type;location;lat;lon;timestamp;pressure;altitude;pressure_sealevel;temperature;humidity
8320;BME280;4197;42.130;24.746;2022-12-22T00:00:45;99970.25;;;-1.39;100.00
8320;BME280;4197;42.130;24.746;2022-12-22T00:03:31;99977.44;;;-1.39;100.00
8320;BME280;4197;42.130;24.746;2022-12-22T00:06:17;99972.94;;;-1.44;100.00
8320;BME280;4197;42.130;24.746;2022-12-22T00:09:02;99970.78;;;-1.42;100.00
8320;BME280;4197;42.130;24.746;2022-12-22T00:11:49;99970.25;;;-1.49;100.00
8320;BME280;4197;42.130;24.746;2022-12-22T00:14:36;99976.66;;;-1.40;100.00
8320;BME280;4197;42.130;24.746;2022-12-22T00:17:26;99979.31;;;-1.40;100.00
8320;BME280;4197;42.130;24.746;2022-12-22T00:20:14;99978.25;;;-1.44;100.00
8320;BME280;4197;42.130;24.746;2022-12-22T00:23:00;99971.06;;;-1.43;100.00
8320;BME280;4197;42.130;24.746;2022-12-22T00:25:46;99968.13;;;-1.52;100.00
8320;BME280;4197;42.130;24.746;2022-12-22T00:28:34;99965.69;;;-1.59;100.00
8320;BME280;4197;42.130;24.746;2022-12-22T00:31:20;99958.75;;;-1.65;100.00
8320;BME280;4197;42.130;24.746;2022-12-22T00:34:11;99966.97;;;-1.71;100.00
8320;BME280;4197;42.130;24.746;2022-12-22T00:36:58;99957.41;;;-1.67;100.00
8320;BME280;4197;42.130;24.746;2022-12-22T00:39:44;99952.66;;;-1.60;100.00
8320;BME280;4197;42.130;24.746;2022-12-22T00:42:30;99950.00;;;-1.60;100.00
8320;BME280;4197;42.130;24.746;2022-12-22T00:45:17;99952.44;;;-1.43;100.00
8320;BME280;4197;42.130;24.746;2022-12-22T00:48:03;99943.91;;;-1.50;100.00
8320;BME280;4197;42.130;24.746;2022-12-22T00:50:50;99938.56;;;-1.61;100.00
8320;BME280;4197;42.130;24.746;2022-12-22T00:53:36;99939.63;;;-1.62;100.00
8320;BME280;4197;42.130;24.746;2022-12-22T00:56:21;99930.59;;;-1.55;100.00
8320;BME280;4197;42.130;24.746;2022-12-22T00:59:08;99934.88;;;-1.49;100.00
8320;BME280;4197;42.130;24.746;2022-12-22T01:01:55;99932.47;;;-1.51;100.00
8320;BME280;4197;42.130;24.746;2022-12-22T01:04:41;99938.81;;;-1.62;100.00
8320;BME280;4197;42.130;24.746;2022-12-22T01:07:27;99933.75;;;-1.69;100.00
8320;BME280;4197;42.130;24.746;2022-12-22T01:10:14;99941.47;;;-1.67;100.00
8320;BME280;4197;42.130;24.746;2022-12-22T01:13:00;99933.44;;;-1.72;100.00
8320;BME280;4197;42.130;24.746;2022-12-22T01:15:46;99929.50;;;-1.65;100.00
8320;BME280;4197;42.130;24.746;2022-12-22T01:18:33;99934.81;;;-1.65;100.00
8320;BME280;4197;42.130;24.746;2022-12-22T01:21:19;99930.03;;;-1.63;100.00
8320;BME280;4197;42.130;24.746;2022-12-22T01:24:12;99925.75;;;-1.74;100.00
8320;BME280;4197;42.130;24.746;2022-12-22T01:26:58;99926.28;;;-1.77;100.00
8320;BME280;4197;42.130;24.746;2022-12-22T01:29:43;99923.63;;;-1.77;100.00
8320;BME280;4197;42.130;24.746;2022-12-22T01:32:29;99913.97;;;-1.93;100.00
8320;BME280;4197;42.130;24.746;2022-12-22T01:35:19;99911.03;;;-2.02;100.00
8320;BME280;4197;42.130;24.746;2022-12-22T01:38:05;99907.53;;;-2.08;100.00
8320;BME280;4197;42.130;24.746;2022-12-22T01:40:52;99901.09;;;-2.17;100.00
8320;BME280;4197;42.130;24.746;2022-12-22T01:43:38;99900.59;;;-2.19;100.00
8320;BME280;4197;42.130;24.746;2022-12-22T01:46:25;99900.06;;;-2.16;100.00
8320;BME280;4197;42.130;24.746;2022-12-22T01:49:15;99896.59;;;-2.16;100.00
8320;BME280;4197;42.130;24.746;2022-12-22T01:52:05;99888.06;;;-2.23;100.00
8320;BME280;4197;42.130;24.746;2022-12-22T01:54:51;99889.66;;;-2.22;100.00
8320;BME280;4197;42.130;24.746;2022-12-22T01:57:39;99891.28;;;-2.16;100.00
8320;BME280;4197;42.130;24.746;2022-12-22T02:00:24;99884.94;;;-2.05;100.00
8320;BME280;4197;42.130;24.746;2022-12-22T02:03:15;99888.16;;;-2.03;100.00
8320;BME280;4197;42.130;24.746;2022-12-22T02:06:14;99884.94;;;-2.10;100.00
8320;BME280;4197;42.130;24.746;2022-12-22T02:09:12;99892.66;;;-2.09;100.00
8320;BME280;4197;42.130;24.746;2022-12-22T02:12:05;99883.59;;;-2.13;100.00
8320;BME280;4197;42.130;24.746;2022-12-22T02:15:01;99879.56;;;-2.20;100.00
8320;BME280;4197;42.130;24.746;2022-12-22T02:17:54;99879.31;;;-2.24;100.00
8320;BME280;4197;42.130;24.746;2022-12-22T02:20:48;99869.69;;;-2.30;100.00
8320;BME280;4197;42.130;24.746;2022-12-22T02:23:56;99879.75;;;-2.37;100.00
8320;BME280;4197;42.130;24.746;2022-12-22T02:26:49;99868.63;;;-2.34;100.00
8320;BME280;4197;42.130;24.746;2022-12-22T02:29:39;99867.06;;;-2.25;100.00
8320;BME280;4197;42.130;24.746;2022-12-22T02:32:26;99873.69;;;-2.28;100.00
8320;BME280;4197;42.130;24.746;2022-12-22T02:35:13;99876.03;;;-2.36;100.00
8320;BME280;4197;42.130;24.746;2022-12-22T02:38:06;99866.53;;;-2.22;100.00
8320;BME280;4197;42.130;24.746;2022-12-22T02:41:05;99862.59;;;-2.14;100.00
8320;BME280;4197;42.130;24.746;2022-12-22T02:44:12;99867.91;;;-2.14;100.00
8320;BME280;4197;42.130;24.746;2022-12-22T02:47:06;99868.44;;;-2.12;100.00
8320;BME280;4197;42.130;24.746;2022-12-22T02:49:55;99864.75;;;-2.06;100.00
8320;BME280;4197;42.130;24.746;2022-12-22T02:52:43;99861.31;;;-2.07;100.00
8320;BME280;4197;42.130;24.746;2022-12-22T02:55:30;99871.06;;;-2.22;100.00
8320;BME280;4197;42.130;24.746;2022-12-22T02:58:17;99870.84;;;-2.16;100.00
8320;BME280;4197;42.130;24.746;2022-12-22T03:01:05;99868.44;;;-2.17;100.00
8320;BME280;4197;42.130;24.746;2022-12-22T03:03:51;99868.16;;;-2.21;100.00
8320;BME280;4197;42.130;24.746;2022-12-22T03:06:37;99868.06;;;-2.36;100.00
8320;BME280;4197;42.130;24.746;2022-12-22T03:09:22;99866.19;;;-2.36;100.00
8320;BME280;4197;42.130;24.746;2022-12-22T03:12:08;99866.78;;;-2.29;100.00
8320;BME280;4197;42.130;24.746;2022-12-22T03:14:53;99873.16;;;-2.25;100.00
8320;BME280;4197;42.130;24.746;2022-12-22T03:17:41;99868.31;;;-2.43;100.00
8320;BME280;4197;42.130;24.746;2022-12-22T03:20:26;99867.72;;;-2.50;100.00
8320;BME280;4197;42.130;24.746;2022-12-22T03:23:12;99872.28;;;-2.45;100.00
8320;BME280;4197;42.130;24.746;2022-12-22T03:25:57;99867.84;;;-2.30;100.00
8320;BME280;4197;42.130;24.746;2022-12-22T03:28:27;99871.84;;;-2.22;100.00
8320;BME280;4197;42.130;24.746;2022-12-22T03:30:58;99868.19;;;-2.16;100.00
8320;BME280;4197;42.130;24.746;2022-12-22T03:33:29;99865.03;;;-2.08;100.00
8320;BME280;4197;42.130;24.746;2022-12-22T03:35:58;99868.72;;;-2.09;100.00
8320;BME280;4197;42.130;24.746;2022-12-22T03:38:27;99864.69;;;-2.16;100.00
8320;BME280;4197;42.130;24.746;2022-12-22T03:40:55;99855.09;;;-2.28;100.00
8320;BME280;4197;42.130;24.746;2022-12-22T03:43:24;99854.25;;;-2.38;100.00
8320;BME280;4197;42.130;24.746;2022-12-22T03:46:10;99864.00;;;-2.54;100.00
8320;BME280;4197;42.130;24.746;2022-12-22T03:48:59;99866.75;;;-2.34;100.00
8320;BME280;4197;42.130;24.746;2022-12-22T03:51:39;99862.22;;;-2.33;100.00
8320;BME280;4197;42.130;24.746;2022-12-22T03:54:09;99864.44;;;-2.20;100.00
8320;BME280;4197;42.130;24.746;2022-12-22T03:56:38;99861.53;;;-2.18;100.00
8320;BME280;4197;42.130;24.746;2022-12-22T03:59:07;99849.53;;;-2.26;100.00
8320;BME280;4197;42.130;24.746;2022-12-22T04:01:39;99858.03;;;-2.29;100.00
8320;BME280;4197;42.130;24.746;2022-12-22T04:04:10;99851.91;;;-2.25;100.00
8320;BME280;4197;42.130;24.746;2022-12-22T04:06:39;99854.06;;;-2.21;100.00
8320;BME280;4197;42.130;24.746;2022-12-22T04:09:07;99857.22;;;-2.25;100.00
8320;BME280;4197;42.130;24.746;2022-12-22T04:11:35;99854.28;;;-2.28;100.00
8320;BME280;4197;42.130;24.746;2022-12-22T04:14:22;99848.44;;;-2.30;100.00
8320;BME280;4197;42.130;24.746;2022-12-22T04:16:59;99845.53;;;-2.29;100.00
8320;BME280;4197;42.130;24.746;2022-12-22T04:19:29;99852.44;;;-2.28;100.00
8320;BME280;4197;42.130;24.746;2022-12-22T04:21:57;99854.06;;;-2.27;100.00
8320;BME280;4197;42.130;24.746;2022-12-22T04:24:25;99860.41;;;-2.28;100.00
8320;BME280;4197;42.130;24.746;2022-12-22T04:26:53;99844.75;;;-2.29;100.00
8320;BME280;4197;42.130;24.746;2022-12-22T04:29:21;99852.16;;;-2.31;100.00
8320;BME280;4197;42.130;24.746;2022-12-22T04:31:49;99847.41;;;-2.29;100.00
8320;BME280;4197;42.130;24.746;2022-12-22T04:34:18;99851.59;;;-2.38;100.00
8320;BME280;4197;42.130;24.746;2022-12-22T04:36:47;99851.28;;;-2.52;100.00
8320;BME280;4197;42.130;24.746;2022-12-22T04:39:15;99856.69;;;-2.32;100.00
8320;BME280;4197;42.130;24.746;2022-12-22T04:41:44;99859.59;;;-2.28;100.00
8320;BME280;4197;42.130;24.746;2022-12-22T04:44:12;99860.66;;;-2.34;100.00
8320;BME280;4197;42.130;24.746;2022-12-22T04:46:40;99855.31;;;-2.39;100.00
8320;BME280;4197;42.130;24.746;2022-12-22T04:49:08;99853.75;;;-2.35;100.00
8320;BME280;4197;42.130;24.746;2022-12-22T04:51:36;99860.94;;;-2.26;100.00
8320;BME280;4197;42.130;24.746;2022-12-22T04:54:06;99856.41;;;-2.30;100.00
8320;BME280;4197;42.130;24.746;2022-12-22T04:56:34;99854.28;;;-2.28;100.00
8320;BME280;4197;42.130;24.746;2022-12-22T04:59:02;99855.59;;;-2.31;100.00
8320;BME280;4197;42.130;24.746;2022-12-22T05:01:31;99851.91;;;-2.25;100.00
8320;BME280;4197;42.130;24.746;2022-12-22T05:03:59;99856.16;;;-2.29;100.00
8320;BME280;4197;42.130;24.746;2022-12-22T05:06:27;99851.63;;;-2.28;100.00
8320;BME280;4197;42.130;24.746;2022-12-22T05:08:55;99855.81;;;-2.42;100.00
8320;BME280;4197;42.130;24.746;2022-12-22T05:11:25;99854.00;;;-2.37;100.00
8320;BME280;4197;42.130;24.746;2022-12-22T05:13:54;99850.81;;;-2.34;100.00
8320;BME280;4197;42.130;24.746;2022-12-22T05:16:29;99852.44;;;-2.33;100.00
8320;BME280;4197;42.130;24.746;2022-12-22T05:19:00;99852.94;;;-2.41;100.00
8320;BME280;4197;42.130;24.746;2022-12-22T05:21:28;99859.47;;;-2.54;100.00
8320;BME280;4197;42.130;24.746;2022-12-22T05:23:57;99852.03;;;-2.57;100.00
8320;BME280;4197;42.130;24.746;2022-12-22T05:26:27;99857.66;;;-2.48;100.00
8320;BME280;4197;42.130;24.746;2022-12-22T05:28:55;99848.63;;;-2.47;100.00
8320;BME280;4197;42.130;24.746;2022-12-22T05:31:24;99860.78;;;-2.56;100.00
8320;BME280;4197;42.130;24.746;2022-12-22T05:33:52;99852.88;;;-2.46;100.00
8320;BME280;4197;42.130;24.746;2022-12-22T05:36:21;99854.78;;;-2.36;100.00
8320;BME280;4197;42.130;24.746;2022-12-22T05:38:49;99857.72;;;-2.38;100.00
8320;BME280;4197;42.130;24.746;2022-12-22T05:41:18;99859.78;;;-2.45;100.00
8320;BME280;4197;42.130;24.746;2022-12-22T05:43:47;99868.00;;;-2.52;100.00
8320;BME280;4197;42.130;24.746;2022-12-22T05:46:15;99852.84;;;-2.51;100.00
8320;BME280;4197;42.130;24.746;2022-12-22T05:48:44;99858.97;;;-2.51;100.00
8320;BME280;4197;42.130;24.746;2022-12-22T05:51:12;99861.66;;;-2.45;100.00
8320;BME280;4197;42.130;24.746;2022-12-22T05:53:40;99859.47;;;-2.54;100.00
8320;BME280;4197;42.130;24.746;2022-12-22T05:56:08;99858.50;;;-2.37;100.00
8320;BME280;4197;42.130;24.746;2022-12-22T05:58:37;99853.47;;;-2.34;100.00
8320;BME280;4197;42.130;24.746;2022-12-22T06:01:07;99856.41;;;-2.35;100.00
8320;BME280;4197;42.130;24.746;2022-12-22T06:03:35;99855.34;;;-2.34;100.00
8320;BME280;4197;42.130;24.746;2022-12-22T06:06:04;99852.13;;;-2.36;100.00
8320;BME280;4197;42.130;24.746;2022-12-22T06:08:32;99847.63;;;-2.31;100.00
8320;BME280;4197;42.130;24.746;2022-12-22T06:11:00;99851.69;;;-2.18;100.00
8320;BME280;4197;42.130;24.746;2022-12-22T06:13:29;99854.03;;;-2.32;100.00
8320;BME280;4197;42.130;24.746;2022-12-22T06:15:57;99858.50;;;-2.37;100.00
8320;BME280;4197;42.130;24.746;2022-12-22T06:18:27;99855.34;;;-2.34;100.00
8320;BME280;4197;42.130;24.746;2022-12-22T06:20:55;99856.88;;;-2.43;100.00
8320;BME280;4197;42.130;24.746;2022-12-22T06:23:23;99861.38;;;-2.49;100.00
8320;BME280;4197;42.130;24.746;2022-12-22T06:25:55;99861.13;;;-2.42;100.00
8320;BME280;4197;42.130;24.746;2022-12-22T06:28:23;99862.53;;;-2.30;100.00
8320;BME280;4197;42.130;24.746;2022-12-22T06:30:52;99864.72;;;-2.11;100.00
8320;BME280;4197;42.130;24.746;2022-12-22T06:33:20;99867.44;;;-2.01;100.00
8320;BME280;4197;42.130;24.746;2022-12-22T06:35:50;99871.16;;;-2.02;100.00
8320;BME280;4197;42.130;24.746;2022-12-22T06:38:25;99869.03;;;-2.00;100.00
8320;BME280;4197;42.130;24.746;2022-12-22T06:40:54;99870.13;;;-1.96;100.00
8320;BME280;4197;42.130;24.746;2022-12-22T06:43:22;99878.13;;;-1.91;100.00
8320;BME280;4197;42.130;24.746;2022-12-22T06:45:50;99875.47;;;-1.81;100.00
8320;BME280;4197;42.130;24.746;2022-12-22T06:48:18;99888.22;;;-1.88;100.00
8320;BME280;4197;42.130;24.746;2022-12-22T06:50:47;99880.25;;;-1.77;100.00
8320;BME280;4197;42.130;24.746;2022-12-22T06:53:16;99878.63;;;-1.94;100.00
8320;BME280;4197;42.130;24.746;2022-12-22T06:55:44;99884.44;;;-1.97;100.00
8320;BME280;4197;42.130;24.746;2022-12-22T06:58:12;99880.47;;;-1.94;100.00
8320;BME280;4197;42.130;24.746;2022-12-22T07:00:41;99878.66;;;-1.84;100.00
8320;BME280;4197;42.130;24.746;2022-12-22T07:03:11;99880.28;;;-1.72;100.00
8320;BME280;4197;42.130;24.746;2022-12-22T07:05:39;99877.38;;;-1.55;100.00
8320;BME280;4197;42.130;24.746;2022-12-22T07:08:08;99878.19;;;-1.60;100.00
8320;BME280;4197;42.130;24.746;2022-12-22T07:10:37;99877.19;;;-1.44;100.00
8320;BME280;4197;42.130;24.746;2022-12-22T07:13:25;99884.06;;;-1.53;100.00
8320;BME280;4197;42.130;24.746;2022-12-22T07:15:54;99872.06;;;-1.55;100.00
8320;BME280;4197;42.130;24.746;2022-12-22T07:18:28;99875.03;;;-1.42;100.00
8320;BME280;4197;42.130;24.746;2022-12-22T07:20:58;99875.59;;;-1.35;100.00
8320;BME280;4197;42.130;24.746;2022-12-22T07:23:27;99873.47;;;-1.32;100.00
8320;BME280;4197;42.130;24.746;2022-12-22T07:25:57;99877.19;;;-1.28;100.00
8320;BME280;4197;42.130;24.746;2022-12-22T07:28:25;99880.13;;;-1.30;100.00
8320;BME280;4197;42.130;24.746;2022-12-22T07:30:54;99875.06;;;-1.26;100.00
8320;BME280;4197;42.130;24.746;2022-12-22T07:33:23;99877.72;;;-1.31;100.00
8320;BME280;4197;42.130;24.746;2022-12-22T07:36:03;99874.50;;;-1.33;100.00
8320;BME280;4197;42.130;24.746;2022-12-22T07:38:36;99877.19;;;-1.18;100.00
8320;BME280;4197;42.130;24.746;2022-12-22T07:41:07;99878.50;;;-1.05;100.00
8320;BME280;4197;42.130;24.746;2022-12-22T07:43:50;99880.13;;;-0.99;100.00
8320;BME280;4197;42.130;24.746;2022-12-22T07:46:18;99880.66;;;-0.77;100.00
8320;BME280;4197;42.130;24.746;2022-12-22T07:48:46;99882.78;;;-0.69;100.00
8320;BME280;4197;42.130;24.746;2022-12-22T07:51:33;99882.50;;;-0.62;100.00
8320;BME280;4197;42.130;24.746;2022-12-22T07:54:03;99883.03;;;-0.65;100.00
8320;BME280;4197;42.130;24.746;2022-12-22T07:56:33;99881.16;;;-0.64;100.00
8320;BME280;4197;42.130;24.746;2022-12-22T07:59:02;99873.94;;;-0.54;100.00
8320;BME280;4197;42.130;24.746;2022-12-22T08:01:30;99873.94;;;-0.49;100.00
8320;BME280;4197;42.130;24.746;2022-12-22T08:03:59;99870.75;;;-0.46;100.00
8320;BME280;4197;42.130;24.746;2022-12-22T08:06:27;99872.84;;;-0.42;100.00
8320;BME280;4197;42.130;24.746;2022-12-22T08:08:56;99873.41;;;-0.40;100.00
8320;BME280;4197;42.130;24.746;2022-12-22T08:11:24;99871.50;;;-0.35;100.00
8320;BME280;4197;42.130;24.746;2022-12-22T08:13:53;99866.97;;;-0.29;100.00
8320;BME280;4197;42.130;24.746;2022-12-22T08:16:27;99880.81;;;-0.22;100.00
8320;BME280;4197;42.130;24.746;2022-12-22T08:18:56;99871.97;;;-0.12;100.00
8320;BME280;4197;42.130;24.746;2022-12-22T08:21:24;99877.00;;;-0.06;100.00
8320;BME280;4197;42.130;24.746;2022-12-22T08:23:53;99872.72;;;0.04;100.00
8320;BME280;4197;42.130;24.746;2022-12-22T08:26:24;99879.09;;;0.08;100.00
8320;BME280;4197;42.130;24.746;2022-12-22T08:28:58;99877.13;;;0.29;100.00
8320;BME280;4197;42.130;24.746;2022-12-22T08:31:29;99874.53;;;0.58;100.00
8320;BME280;4197;42.130;24.746;2022-12-22T08:34:00;99871.84;;;0.63;100.00
8320;BME280;4197;42.130;24.746;2022-12-22T08:36:33;99871.81;;;0.68;100.00
8320;BME280;4197;42.130;24.746;2022-12-22T08:39:03;99867.56;;;0.67;100.00
8320;BME280;4197;42.130;24.746;2022-12-22T08:41:32;99853.09;;;0.73;100.00
8320;BME280;4197;42.130;24.746;2022-12-22T08:44:22;99854.66;;;0.79;100.00
8320;BME280;4197;42.130;24.746;2022-12-22T08:46:51;99851.06;;;0.94;100.00
8320;BME280;4197;42.130;24.746;2022-12-22T08:49:20;99848.88;;;1.01;100.00
8320;BME280;4197;42.130;24.746;2022-12-22T08:51:49;99848.53;;;1.08;100.00
8320;BME280;4197;42.130;24.746;2022-12-22T08:54:18;99845.50;;;1.20;100.00
8320;BME280;4197;42.130;24.746;2022-12-22T08:56:47;99837.13;;;1.55;100.00
8320;BME280;4197;42.130;24.746;2022-12-22T08:59:15;99835.53;;;1.54;100.00
8320;BME280;4197;42.130;24.746;2022-12-22T09:01:45;99826.16;;;1.57;100.00
8320;BME280;4197;42.130;24.746;2022-12-22T09:04:18;99821.84;;;1.61;100.00
8320;BME280;4197;42.130;24.746;2022-12-22T09:06:49;99816.94;;;1.68;100.00
8320;BME280;4197;42.130;24.746;2022-12-22T09:09:18;99821.38;;;1.78;100.00
8320;BME280;4197;42.130;24.746;2022-12-22T09:11:47;99819.81;;;1.96;100.00
8320;BME280;4197;42.130;24.746;2022-12-22T09:14:15;99815.38;;;1.86;100.00
8320;BME280;4197;42.130;24.746;2022-12-22T09:16:45;99816.19;;;1.87;100.00
8320;BME280;4197;42.130;24.746;2022-12-22T09:19:13;99809.63;;;1.98;100.00
8320;BME280;4197;42.130;24.746;2022-12-22T09:21:41;99810.56;;;2.26;100.00
8320;BME280;4197;42.130;24.746;2022-12-22T09:24:12;99793.78;;;2.39;100.00
8320;BME280;4197;42.130;24.746;2022-12-22T09:26:40;99803.53;;;2.49;100.00
8320;BME280;4197;42.130;24.746;2022-12-22T09:29:08;99795.59;;;2.44;100.00
8320;BME280;4197;42.130;24.746;2022-12-22T09:31:37;99799.34;;;2.43;100.00
8320;BME280;4197;42.130;24.746;2022-12-22T09:34:09;99796.22;;;2.55;100.00
8320;BME280;4197;42.130;24.746;2022-12-22T09:36:43;99806.56;;;2.61;100.00
8320;BME280;4197;42.130;24.746;2022-12-22T09:39:12;99805.13;;;2.69;100.00
8320;BME280;4197;42.130;24.746;2022-12-22T09:41:44;99795.72;;;2.72;100.00
8320;BME280;4197;42.130;24.746;2022-12-22T09:44:20;99798.28;;;2.77;100.00
8320;BME280;4197;42.130;24.746;2022-12-22T09:46:50;99798.22;;;2.96;100.00
8320;BME280;4197;42.130;24.746;2022-12-22T09:49:20;99787.25;;;2.97;100.00
8320;BME280;4197;42.130;24.746;2022-12-22T09:51:51;99790.31;;;3.04;100.00
8320;BME280;4197;42.130;24.746;2022-12-22T09:54:21;99785.88;;;3.13;100.00
8320;BME280;4197;42.130;24.746;2022-12-22T09:56:49;99779.63;;;3.18;100.00
8320;BME280;4197;42.130;24.746;2022-12-22T09:59:20;99772.50;;;3.27;100.00
8320;BME280;4197;42.130;24.746;2022-12-22T10:02:10;99763.75;;;3.35;100.00
8320;BME280;4197;42.130;24.746;2022-12-22T10:04:54;99768.72;;;3.42;100.00
8320;BME280;4197;42.130;24.746;2022-12-22T10:07:28;99760.78;;;3.51;100.00
8320;BME280;4197;42.130;24.746;2022-12-22T10:10:04;99764.91;;;3.71;100.00
8320;BME280;4197;42.130;24.746;2022-12-22T10:12:32;99752.91;;;3.68;100.00
8320;BME280;4197;42.130;24.746;2022-12-22T10:15:00;99751.22;;;3.72;100.00
8320;BME280;4197;42.130;24.746;2022-12-22T10:17:31;99739.97;;;3.84;100.00
8320;BME280;4197;42.130;24.746;2022-12-22T10:20:18;99736.34;;;4.02;100.00
8320;BME280;4197;42.130;24.746;2022-12-22T10:22:49;99730.03;;;3.85;100.00
8320;BME280;4197;42.130;24.746;2022-12-22T10:25:30;99730.31;;;3.97;100.00
8320;BME280;4197;42.130;24.746;2022-12-22T10:28:23;99729.84;;;4.17;100.00
8320;BME280;4197;42.130;24.746;2022-12-22T10:31:13;99730.94;;;4.16;100.00
8320;BME280;4197;42.130;24.746;2022-12-22T10:33:43;99735.88;;;4.23;100.00
8320;BME280;4197;42.130;24.746;2022-12-22T10:36:19;99730.78;;;4.35;100.00
8320;BME280;4197;42.130;24.746;2022-12-22T10:38:58;99725.91;;;4.46;100.00
8320;BME280;4197;42.130;24.746;2022-12-22T10:41:30;99724.06;;;4.46;98.28
8320;BME280;4197;42.130;24.746;2022-12-22T10:44:01;99717.69;;;4.42;98.38
8320;BME280;4197;42.130;24.746;2022-12-22T10:46:35;99705.38;;;4.41;99.16
8320;BME280;4197;42.130;24.746;2022-12-22T10:49:11;99711.38;;;4.38;98.50
8320;BME280;4197;42.130;24.746;2022-12-22T10:51:44;99699.22;;;4.41;99.52
8320;BME280;4197;42.130;24.746;2022-12-22T10:54:24;99699.72;;;4.52;99.16
8320;BME280;4197;42.130;24.746;2022-12-22T10:57:01;99689.19;;;4.55;100.00
8320;BME280;4197;42.130;24.746;2022-12-22T10:59:30;99691.13;;;4.63;99.75
8320;BME280;4197;42.130;24.746;2022-12-22T11:02:20;99682.75;;;4.65;97.97
8320;BME280;4197;42.130;24.746;2022-12-22T11:04:51;99673.44;;;4.71;97.00
8320;BME280;4197;42.130;24.746;2022-12-22T11:07:20;99677.41;;;4.74;95.33
8320;BME280;4197;42.130;24.746;2022-12-22T11:09:50;99668.44;;;4.78;95.47
8320;BME280;4197;42.130;24.746;2022-12-22T11:12:23;99666.34;;;4.66;94.30
8320;BME280;4197;42.130;24.746;2022-12-22T11:14:58;99654.81;;;4.66;95.67
8320;BME280;4197;42.130;24.746;2022-12-22T11:17:34;99647.75;;;4.87;95.76
8320;BME280;4197;42.130;24.746;2022-12-22T11:20:31;99647.97;;;5.00;95.21
8320;BME280;4197;42.130;24.746;2022-12-22T11:23:07;99634.41;;;5.05;93.19
8320;BME280;4197;42.130;24.746;2022-12-22T11:25:44;99640.72;;;5.09;92.80
8320;BME280;4197;42.130;24.746;2022-12-22T11:28:31;99639.69;;;4.87;91.46
8320;BME280;4197;42.130;24.746;2022-12-22T11:31:14;99635.16;;;4.97;91.66
8320;BME280;4197;42.130;24.746;2022-12-22T11:33:55;99633.56;;;4.96;91.99
8320;BME280;4197;42.130;24.746;2022-12-22T11:36:33;99630.25;;;4.99;93.02
8320;BME280;4197;42.130;24.746;2022-12-22T11:39:12;99630.59;;;5.06;91.54
8320;BME280;4197;42.130;24.746;2022-12-22T11:41:51;99629.03;;;5.05;92.87
8320;BME280;4197;42.130;24.746;2022-12-22T11:44:38;99622.13;;;5.21;92.33
8320;BME280;4197;42.130;24.746;2022-12-22T11:47:17;99624.31;;;5.19;92.66
8320;BME280;4197;42.130;24.746;2022-12-22T11:50:00;99625.44;;;5.27;93.99
8320;BME280;4197;42.130;24.746;2022-12-22T11:53:02;99623.22;;;5.37;93.18
8320;BME280;4197;42.130;24.746;2022-12-22T11:55:36;99620.22;;;5.30;94.69
8320;BME280;4197;42.130;24.746;2022-12-22T11:58:18;99627.16;;;5.31;94.35
8320;BME280;4197;42.130;24.746;2022-12-22T12:00:55;99628.28;;;5.22;95.44
8320;BME280;4197;42.130;24.746;2022-12-22T12:04:07;99618.13;;;5.10;97.30
8320;BME280;4197;42.130;24.746;2022-12-22T12:07:02;99622.13;;;5.21;97.95
8320;BME280;4197;42.130;24.746;2022-12-22T12:09:43;99620.84;;;5.36;98.33
8320;BME280;4197;42.130;24.746;2022-12-22T12:12:20;99621.50;;;5.33;98.01
8320;BME280;4197;42.130;24.746;2022-12-22T12:14:58;99615.97;;;5.29;97.46
8320;BME280;4197;42.130;24.746;2022-12-22T12:17:42;99606.78;;;5.39;96.83
8320;BME280;4197;42.130;24.746;2022-12-22T12:20:42;99606.16;;;5.42;97.27
8320;BME280;4197;42.130;24.746;2022-12-22T12:23:26;99596.50;;;5.50;98.65
8320;BME280;4197;42.130;24.746;2022-12-22T12:26:06;99599.69;;;5.52;97.96
8320;BME280;4197;42.130;24.746;2022-12-22T12:28:45;99597.00;;;5.52;96.32
8320;BME280;4197;42.130;24.746;2022-12-22T12:31:20;99606.47;;;5.49;95.34
8320;BME280;4197;42.130;24.746;2022-12-22T12:33:54;99599.97;;;5.59;94.58
8320;BME280;4197;42.130;24.746;2022-12-22T12:36:28;99596.97;;;5.69;94.06
8320;BME280;4197;42.130;24.746;2022-12-22T12:39:03;99597.63;;;5.75;93.65
8320;BME280;4197;42.130;24.746;2022-12-22T12:41:42;99594.94;;;5.66;93.93
8320;BME280;4197;42.130;24.746;2022-12-22T12:44:17;99593.97;;;5.79;94.21
8320;BME280;4197;42.130;24.746;2022-12-22T12:46:55;99594.63;;;5.76;94.42
8320;BME280;4197;42.130;24.746;2022-12-22T12:49:54;99595.56;;;5.72;95.04
8320;BME280;4197;42.130;24.746;2022-12-22T12:55:25;99605.53;;;5.71;94.73
8320;BME280;4197;42.130;24.746;2022-12-22T12:58:01;99598.41;;;5.75;91.98
8320;BME280;4197;42.130;24.746;2022-12-22T13:00:42;99604.88;;;5.92;92.38
8320;BME280;4197;42.130;24.746;2022-12-22T13:03:37;99600.78;;;5.86;91.59
8320;BME280;4197;42.130;24.746;2022-12-22T13:06:48;99602.34;;;5.87;89.96
8320;BME280;4197;42.130;24.746;2022-12-22T13:09:19;99603.75;;;5.93;89.36
8320;BME280;4197;42.130;24.746;2022-12-22T13:12:32;99599.81;;;5.90;90.60
8320;BME280;4197;42.130;24.746;2022-12-22T13:15:00;99601.56;;;5.86;91.71
8320;BME280;4197;42.130;24.746;2022-12-22T13:17:39;99598.56;;;5.88;93.46
8320;BME280;4197;42.130;24.746;2022-12-22T13:20:13;99603.94;;;5.79;95.18
8320;BME280;4197;42.130;24.746;2022-12-22T13:22:42;99596.81;;;5.74;95.81
8320;BME280;4197;42.130;24.746;2022-12-22T13:25:14;99608.84;;;5.77;96.71
8320;BME280;4197;42.130;24.746;2022-12-22T13:27:43;99607.25;;;5.76;97.06
8320;BME280;4197;42.130;24.746;2022-12-22T13:30:15;99606.31;;;5.72;97.45
8320;BME280;4197;42.130;24.746;2022-12-22T13:32:47;99605.38;;;5.76;97.28
8320;BME280;4197;42.130;24.746;2022-12-22T13:35:19;99607.09;;;5.81;96.78
8320;BME280;4197;42.130;24.746;2022-12-22T13:38:00;99602.69;;;5.76;97.20
8320;BME280;4197;42.130;24.746;2022-12-22T13:40:30;99600.59;;;5.73;97.50
8320;BME280;4197;42.130;24.746;2022-12-22T13:43:02;99598.41;;;5.75;97.69
8320;BME280;4197;42.130;24.746;2022-12-22T13:45:34;99602.22;;;5.74;97.91
8320;BME280;4197;42.130;24.746;2022-12-22T13:48:13;99608.06;;;5.85;97.11
8320;BME280;4197;42.130;24.746;2022-12-22T13:50:45;99600.47;;;5.96;96.45
8320;BME280;4197;42.130;24.746;2022-12-22T13:53:18;99593.97;;;5.97;96.08
8320;BME280;4197;42.130;24.746;2022-12-22T13:56:13;99598.22;;;5.89;96.76
8320;BME280;4197;42.130;24.746;2022-12-22T13:58:43;99592.69;;;5.86;97.60
8320;BME280;4197;42.130;24.746;2022-12-22T14:01:16;99591.28;;;5.79;97.49